Time;durP1;ratioP1;P1;durP2;ratioP2;P2;SDS_P1;SDS_P2;PMS_P1;PMS_P2;Temp;Humidity;BMP_temperature;BMP_pressure;BME280_temperature;BME280_humidity;BME280_pressure;Samples;Min_cycle;Max_cycle;Signal;HPM_P1;HPM_P2
2024/04/03 00:00:07;;;;;;;0.73;0.70;;;14.40;48.70;;;;;;5063767;28;20225;-58
2024/04/03 00:02:33;;;;;;;0.77;0.77;;;14.40;48.70;;;;;;5064041;28;20286;-58
2024/04/03 00:05:00;;;;;;;1.10;0.70;;;14.40;48.70;;;;;;5065990;28;20336;-58
2024/04/03 00:07:26;;;;;;;0.87;0.87;;;14.40;48.70;;;;;;5063396;28;20208;-58
2024/04/03 00:09:52;;;;;;;0.77;0.70;;;14.40;48.70;;;;;;5061901;28;20210;-58
2024/04/03 00:12:19;;;;;;;1.20;0.83;;;14.40;48.70;;;;;;5046230;28;20576;-58
2024/04/03 00:14:46;;;;;;;1.27;0.80;;;14.40;48.70;;;;;;5059234;28;20205;-58
2024/04/03 00:17:12;;;;;;;0.90;0.80;;;14.40;48.70;;;;;;5062776;28;20222;-58
2024/04/03 00:19:39;;;;;;;0.67;0.67;;;14.40;48.70;;;;;;5063475;28;20215;-59
2024/04/03 00:22:04;;;;;;;0.70;0.70;;;14.30;48.70;;;;;;5056346;28;20212;-58
2024/04/03 00:24:31;;;;;;;1.37;0.90;;;14.40;48.70;;;;;;5063124;28;20210;-58
2024/04/03 00:26:57;;;;;;;0.60;0.60;;;14.40;48.70;;;;;;5062592;28;20545;-58
2024/04/03 00:29:25;;;;;;;1.00;0.80;;;14.30;48.70;;;;;;5069890;28;20199;-58
2024/04/03 00:31:51;;;;;;;0.80;0.73;;;14.30;48.70;;;;;;5068742;28;20236;-58
2024/04/03 00:34:17;;;;;;;0.93;0.90;;;14.30;48.70;;;;;;5073818;28;20195;-58
2024/04/03 00:36:43;;;;;;;1.40;0.77;;;14.30;48.70;;;;;;5073286;28;20204;-58
2024/04/03 00:39:10;;;;;;;1.30;0.77;;;14.30;48.70;;;;;;5073270;28;20207;-58
2024/04/03 00:41:36;;;;;;;0.60;0.60;;;14.30;48.70;;;;;;5059787;28;20227;-58
2024/04/03 00:44:02;;;;;;;0.57;0.57;;;14.30;48.70;;;;;;5073425;28;20208;-58
2024/04/03 00:46:29;;;;;;;0.70;0.70;;;14.30;48.70;;;;;;5065183;28;20203;-58
2024/04/03 00:48:57;;;;;;;0.70;0.70;;;14.30;48.70;;;;;;5070112;28;20225;-58
2024/04/03 00:51:23;;;;;;;1.53;0.80;;;14.30;48.70;;;;;;5063910;28;20218;-58
2024/04/03 00:53:50;;;;;;;0.50;0.50;;;14.30;48.70;;;;;;5064495;28;20198;-58
2024/04/03 00:56:17;;;;;;;1.00;0.80;;;14.30;48.70;;;;;;5037762;28;20235;-58
2024/04/03 00:58:44;;;;;;;1.27;0.80;;;14.30;48.60;;;;;;5069401;28;20219;-58
2024/04/03 01:01:09;;;;;;;0.87;0.87;;;14.30;48.70;;;;;;5070231;28;20222;-58
2024/04/03 01:03:38;;;;;;;0.50;0.50;;;14.30;48.70;;;;;;5073235;28;20203;-58
2024/04/03 01:06:04;;;;;;;0.67;0.63;;;14.30;48.70;;;;;;5063646;28;20205;-58
2024/04/03 01:08:31;;;;;;;0.70;0.70;;;14.30;48.70;;;;;;5067161;28;20287;-58
2024/04/03 01:10:58;;;;;;;0.77;0.70;;;14.30;48.70;;;;;;5057975;28;20251;-58
2024/04/03 01:13:25;;;;;;;1.23;0.83;;;14.30;48.60;;;;;;5073369;28;20295;-58
2024/04/03 01:15:53;;;;;;;0.67;0.60;;;14.30;48.70;;;;;;5067677;28;20214;-58
2024/04/03 01:18:20;;;;;;;0.67;0.67;;;14.30;48.70;;;;;;5071952;28;20202;-58
2024/04/03 01:20:47;;;;;;;0.63;0.63;;;14.30;48.60;;;;;;5065972;28;20747;-58
2024/04/03 01:23:13;;;;;;;0.90;0.63;;;14.30;48.70;;;;;;5067610;28;20204;-58
2024/04/03 01:25:41;;;;;;;1.90;0.93;;;14.20;48.60;;;;;;5052154;28;20212;-58
2024/04/03 01:28:07;;;;;;;1.37;0.70;;;14.30;48.70;;;;;;5071239;28;20210;-58
2024/04/03 01:30:33;;;;;;;0.87;0.80;;;14.20;48.60;;;;;;5068229;28;20595;-58
2024/04/03 01:33:02;;;;;;;0.80;0.80;;;14.20;48.60;;;;;;5060701;28;20209;-58
2024/04/03 01:35:27;;;;;;;1.57;0.70;;;14.20;48.60;;;;;;5064609;28;20215;-58
2024/04/03 01:37:54;;;;;;;0.60;0.60;;;14.20;48.70;;;;;;5071658;28;20208;-58
2024/04/03 01:40:20;;;;;;;1.53;0.67;;;14.30;48.70;;;;;;5052457;28;20221;-58
2024/04/03 01:42:49;;;;;;;0.87;0.80;;;14.20;48.70;;;;;;5050757;28;20210;-58
2024/04/03 01:45:15;;;;;;;1.57;0.80;;;14.30;48.80;;;;;;5064214;28;20204;-58
2024/04/03 01:47:43;;;;;;;0.60;0.60;;;14.20;48.80;;;;;;5071949;28;20207;-58
2024/04/03 01:50:10;;;;;;;2.60;0.83;;;14.30;48.90;;;;;;5072094;28;20226;-58
2024/04/03 01:52:36;;;;;;;1.00;0.77;;;14.20;48.80;;;;;;5063670;28;20813;-58
2024/04/03 01:55:03;;;;;;;0.63;0.63;;;14.30;48.90;;;;;;5068937;28;20294;-58
2024/04/03 01:57:30;;;;;;;0.70;0.70;;;14.20;48.80;;;;;;5058723;28;20201;-58
2024/04/03 01:59:57;;;;;;;0.73;0.73;;;14.20;48.80;;;;;;5069000;28;20207;-58
2024/04/03 02:02:23;;;;;;;1.37;0.70;;;14.20;48.90;;;;;;5064069;28;20210;-58
2024/04/03 02:04:49;;;;;;;0.90;0.70;;;14.20;48.90;;;;;;5072288;28;20215;-58
2024/04/03 02:07:16;;;;;;;0.50;0.50;;;14.20;48.90;;;;;;5060275;28;20199;-58
2024/04/03 02:09:42;;;;;;;0.87;0.67;;;14.20;48.90;;;;;;5051892;28;20208;-58
2024/04/03 02:12:09;;;;;;;0.60;0.60;;;14.20;49.00;;;;;;5057120;28;20225;-58
2024/04/03 02:14:35;;;;;;;1.00;0.70;;;14.20;48.90;;;;;;5071903;28;20218;-58
2024/04/03 02:17:04;;;;;;;2.10;0.80;;;14.20;49.00;;;;;;5061402;28;20206;-58
2024/04/03 02:19:29;;;;;;;1.10;0.70;;;14.20;49.00;;;;;;5066532;28;20694;-58
2024/04/03 02:21:56;;;;;;;0.50;0.50;;;14.20;49.00;;;;;;5062761;28;20223;-58
2024/04/03 02:24:22;;;;;;;0.80;0.60;;;14.20;49.00;;;;;;5064571;28;20198;-58
2024/04/03 02:26:49;;;;;;;1.00;0.73;;;14.20;49.00;;;;;;5053364;28;20568;-58
2024/04/03 02:29:16;;;;;;;0.67;0.67;;;14.20;49.00;;;;;;5071096;28;20514;-58
2024/04/03 02:31:42;;;;;;;0.87;0.87;;;14.20;49.00;;;;;;5063074;28;20720;-58
2024/04/03 02:34:11;;;;;;;1.03;0.70;;;14.20;49.00;;;;;;5068885;28;20199;-58
2024/04/03 02:36:37;;;;;;;0.80;0.80;;;14.20;49.00;;;;;;5071496;28;20220;-58
2024/04/03 02:39:04;;;;;;;1.73;0.87;;;14.20;49.00;;;;;;5071648;28;20229;-58
2024/04/03 02:41:30;;;;;;;1.37;0.60;;;14.20;49.00;;;;;;5050088;28;20219;-58
2024/04/03 02:43:56;;;;;;;0.87;0.80;;;14.20;49.10;;;;;;5063294;28;20659;-58
2024/04/03 02:46:22;;;;;;;1.13;0.70;;;14.20;49.00;;;;;;5065148;28;20570;-58
2024/04/03 02:48:49;;;;;;;0.70;0.70;;;14.10;49.00;;;;;;5067237;28;20210;-58
2024/04/03 02:51:16;;;;;;;0.90;0.60;;;14.20;49.00;;;;;;5071661;28;20235;-58
2024/04/03 02:53:43;;;;;;;0.63;0.63;;;14.20;49.00;;;;;;5070690;28;20692;-58
2024/04/03 02:56:10;;;;;;;0.87;0.70;;;14.20;49.10;;;;;;5058863;28;20564;-58
2024/04/03 02:58:37;;;;;;;0.60;0.60;;;14.10;49.10;;;;;;5071305;28;20206;-58
2024/04/03 03:01:07;;;;;;;1.47;0.90;;;14.20;49.10;;;;;;5066732;28;20222;-58
2024/04/03 03:03:34;;;;;;;0.70;0.70;;;14.10;49.10;;;;;;5059043;28;20663;-58
2024/04/03 03:06:01;;;;;;;1.57;0.67;;;14.10;49.10;;;;;;5068203;28;20204;-58
2024/04/03 03:08:30;;;;;;;1.03;0.80;;;14.10;49.10;;;;;;5071081;28;20204;-58
2024/04/03 03:10:58;;;;;;;0.80;0.80;;;14.10;49.10;;;;;;5064007;28;20260;-58
2024/04/03 03:13:26;;;;;;;0.80;0.80;;;14.10;49.10;;;;;;5051033;28;20624;-58
2024/04/03 03:15:52;;;;;;;0.50;0.50;;;14.10;49.10;;;;;;5065740;28;20651;-58
2024/04/03 03:18:20;;;;;;;0.50;0.50;;;14.10;49.20;;;;;;5061514;28;20803;-58
2024/04/03 03:20:48;;;;;;;0.53;0.53;;;14.10;49.10;;;;;;5056450;28;20227;-58
2024/04/03 03:23:14;;;;;;;2.00;0.63;;;14.10;49.10;;;;;;5059812;28;20208;-58
2024/04/03 03:25:44;;;;;;;0.90;0.70;;;14.10;49.10;;;;;;5056898;28;20214;-58
2024/04/03 03:28:10;;;;;;;0.70;0.70;;;14.10;49.10;;;;;;5066906;28;20210;-58
2024/04/03 03:30:36;;;;;;;0.90;0.60;;;14.10;49.10;;;;;;5066111;28;20238;-58
2024/04/03 03:33:03;;;;;;;0.60;0.60;;;14.10;49.10;;;;;;5049440;28;20203;-58
2024/04/03 03:35:30;;;;;;;0.60;0.60;;;14.10;49.10;;;;;;5063822;28;20198;-58
2024/04/03 03:37:57;;;;;;;1.00;0.80;;;14.10;49.10;;;;;;5054618;28;20229;-58
2024/04/03 03:40:24;;;;;;;0.73;0.73;;;14.10;49.10;;;;;;5053550;28;20711;-58
2024/04/03 03:42:52;;;;;;;1.43;0.70;;;14.10;49.10;;;;;;5060402;28;20204;-58
2024/04/03 03:45:20;;;;;;;0.70;0.70;;;14.10;49.10;;;;;;5062579;28;20210;-58
2024/04/03 03:47:47;;;;;;;1.27;0.60;;;14.10;49.10;;;;;;5060850;28;20204;-58
2024/04/03 03:52:58;;;;;;;0.60;0.60;;;14.10;49.10;;;;;;5061968;28;20217;-58
2024/04/03 03:55:28;;;;;;;0.50;0.40;;;14.10;49.10;;;;;;5052633;28;20207;-58
2024/04/03 03:57:57;;;;;;;0.70;0.60;;;14.10;49.10;;;;;;5061093;28;20206;-58
2024/04/03 04:00:24;;;;;;;0.60;0.60;;;14.10;49.10;;;;;;5074134;28;20226;-58
2024/04/03 04:02:51;;;;;;;0.60;0.60;;;14.10;49.10;;;;;;5062512;28;20226;-58
2024/04/03 04:05:19;;;;;;;0.70;0.70;;;14.10;49.20;;;;;;5063229;28;20215;-58
2024/04/03 04:07:45;;;;;;;0.60;0.57;;;14.10;49.10;;;;;;5059761;28;20238;-58
2024/04/03 04:10:12;;;;;;;1.17;0.70;;;14.10;49.10;;;;;;5059792;28;20258;-58
2024/04/03 04:12:38;;;;;;;1.00;0.73;;;14.00;49.10;;;;;;5069693;28;20258;-58
2024/04/03 04:15:07;;;;;;;0.60;0.60;;;14.00;49.00;;;;;;5065853;28;20231;-58
2024/04/03 04:17:33;;;;;;;0.60;0.60;;;14.00;49.10;;;;;;5069504;28;20230;-58
2024/04/03 04:20:00;;;;;;;0.57;0.53;;;14.00;49.00;;;;;;5073944;28;20210;-58
2024/04/03 04:22:26;;;;;;;0.70;0.70;;;14.00;49.10;;;;;;5074019;28;20240;-58
2024/04/03 04:24:54;;;;;;;0.63;0.60;;;14.00;49.10;;;;;;5054663;28;20815;-58
2024/04/03 04:27:21;;;;;;;0.70;0.70;;;14.00;49.10;;;;;;5061472;28;20285;-58
2024/04/03 04:29:47;;;;;;;0.60;0.60;;;14.00;49.10;;;;;;5068031;28;20260;-58
2024/04/03 04:32:16;;;;;;;0.57;0.57;;;14.00;49.00;;;;;;5071658;28;20274;-58
2024/04/03 04:34:43;;;;;;;1.47;0.70;;;14.00;49.10;;;;;;5069963;28;20215;-58
2024/04/03 04:37:09;;;;;;;0.90;0.70;;;14.00;49.10;;;;;;5061761;28;20210;-58
2024/04/03 04:39:36;;;;;;;0.90;0.77;;;14.00;49.10;;;;;;5073955;28;20207;-58
2024/04/03 04:42:02;;;;;;;0.80;0.70;;;14.00;49.10;;;;;;5053412;28;20316;-58
2024/04/03 04:44:29;;;;;;;0.83;0.70;;;14.00;49.10;;;;;;5070702;28;20215;-58
2024/04/03 04:46:56;;;;;;;1.33;0.60;;;14.00;49.10;;;;;;5066177;28;20222;-58
2024/04/03 04:49:25;;;;;;;0.80;0.80;;;14.00;49.10;;;;;;5073500;28;20672;-58
2024/04/03 04:51:51;;;;;;;0.70;0.70;;;14.00;49.10;;;;;;5066984;28;20588;-58
2024/04/03 04:54:18;;;;;;;0.60;0.60;;;14.00;49.10;;;;;;5071701;28;20205;-58
2024/04/03 04:56:44;;;;;;;0.67;0.67;;;14.00;49.10;;;;;;5058832;28;20211;-58
2024/04/03 04:59:13;;;;;;;0.70;0.70;;;14.00;49.10;;;;;;5052716;28;20202;-58
2024/04/03 05:01:39;;;;;;;0.70;0.70;;;14.00;49.20;;;;;;5064238;28;20223;-58
2024/04/03 05:04:06;;;;;;;0.60;0.60;;;14.00;49.10;;;;;;5061647;28;20253;-58
2024/04/03 05:06:33;;;;;;;0.60;0.60;;;14.00;49.10;;;;;;5073087;28;20206;-58
2024/04/03 05:09:00;;;;;;;0.60;0.60;;;14.00;49.10;;;;;;5060575;28;20294;-58
2024/04/03 05:11:26;;;;;;;1.17;0.67;;;14.00;49.10;;;;;;5060567;28;20662;-58
2024/04/03 05:13:53;;;;;;;0.50;0.50;;;14.00;49.10;;;;;;5060742;28;20321;-58
2024/04/03 05:16:20;;;;;;;0.70;0.60;;;14.00;49.10;;;;;;5058456;28;20210;-59
2024/04/03 05:18:48;;;;;;;0.70;0.67;;;14.00;49.20;;;;;;5054441;28;20676;-58
2024/04/03 05:21:14;;;;;;;2.00;0.90;;;14.00;49.10;;;;;;5060270;28;20227;-58
2024/04/03 05:23:42;;;;;;;1.03;0.80;;;14.00;49.10;;;;;;5071019;28;20208;-58
2024/04/03 05:26:10;;;;;;;2.50;0.57;;;14.00;49.10;;;;;;5060931;28;20208;-58
2024/04/03 05:28:38;;;;;;;1.03;0.90;;;14.00;49.10;;;;;;5057230;28;20608;-58
2024/04/03 05:31:06;;;;;;;1.30;0.70;;;14.00;49.10;;;;;;5063093;28;20227;-58
2024/04/03 05:33:33;;;;;;;0.73;0.70;;;14.00;49.10;;;;;;5071731;28;20228;-58
2024/04/03 05:36:00;;;;;;;0.80;0.80;;;14.00;49.10;;;;;;5062551;28;20202;-58
2024/04/03 05:38:27;;;;;;;2.47;0.60;;;14.00;49.10;;;;;;5051880;28;20258;-58
2024/04/03 05:40:54;;;;;;;2.57;0.80;;;14.10;49.20;;;;;;5047210;28;20229;-58
2024/04/03 05:43:22;;;;;;;0.73;0.73;;;14.10;49.20;;;;;;5059249;28;20210;-58
2024/04/03 05:45:49;;;;;;;0.80;0.70;;;14.10;49.10;;;;;;5064921;28;20209;-58
2024/04/03 05:48:16;;;;;;;2.43;1.10;;;14.10;49.00;;;;;;5051808;28;20237;-57
2024/04/03 05:50:42;;;;;;;3.23;0.80;;;14.10;49.00;;;;;;5057634;28;20716;-58
2024/04/03 05:53:09;;;;;;;2.53;0.90;;;14.10;49.10;;;;;;5051462;28;20636;-58
2024/04/03 05:55:35;;;;;;;4.20;1.10;;;14.10;49.10;;;;;;5055791;28;20237;-58
2024/04/03 05:58:03;;;;;;;3.70;1.03;;;14.10;49.10;;;;;;5061522;28;20304;-58
2024/04/03 06:00:30;;;;;;;4.80;1.00;;;14.10;47.70;;;;;;5051144;28;20239;-58
2024/04/03 06:02:57;;;;;;;2.67;0.97;;;14.10;48.00;;;;;;5050665;28;20198;-57
2024/04/03 06:05:22;;;;;;;3.13;1.00;;;14.10;48.40;;;;;;5051063;28;20209;-58
2024/04/03 06:07:51;;;;;;;3.60;0.90;;;14.00;48.50;;;;;;5058576;28;20205;-58
2024/04/03 06:10:16;;;;;;;2.93;0.87;;;14.00;48.70;;;;;;5051467;28;20315;-58
2024/04/03 06:12:44;;;;;;;2.77;0.80;;;14.00;48.80;;;;;;5051522;28;20322;-58
2024/04/03 06:15:11;;;;;;;2.63;0.90;;;14.00;48.80;;;;;;5054885;28;20204;-58
2024/04/03 06:17:37;;;;;;;1.10;0.80;;;14.00;48.90;;;;;;5049315;28;21020;-58
2024/04/03 06:20:04;;;;;;;0.70;0.70;;;14.00;48.90;;;;;;5058602;28;20230;-58
2024/04/03 06:22:31;;;;;;;1.70;0.83;;;14.00;49.00;;;;;;5051985;28;20635;-58
2024/04/03 06:24:56;;;;;;;1.10;0.77;;;14.00;49.00;;;;;;5055466;28;20212;-58
2024/04/03 06:27:23;;;;;;;3.07;1.00;;;14.00;49.00;;;;;;5050192;28;20209;-58
2024/04/03 06:29:50;;;;;;;3.07;0.67;;;14.00;49.00;;;;;;5056284;28;20574;-58
2024/04/03 06:32:18;;;;;;;2.20;0.90;;;14.00;49.00;;;;;;5055073;28;20218;-58
2024/04/03 06:34:44;;;;;;;1.50;0.70;;;14.00;49.00;;;;;;5051192;28;20215;-58
2024/04/03 06:37:10;;;;;;;2.27;0.80;;;14.00;49.00;;;;;;5047601;28;20568;-58
2024/04/03 06:39:37;;;;;;;2.40;0.90;;;14.00;49.00;;;;;;5060850;28;20203;-58
2024/04/03 06:42:03;;;;;;;2.50;0.77;;;14.00;49.00;;;;;;5048062;28;20613;-58
2024/04/03 06:44:30;;;;;;;2.20;0.83;;;14.00;49.00;;;;;;5050717;28;20204;-58
2024/04/03 06:47:01;;;;;;;0.90;0.90;;;14.00;49.00;;;;;;5047461;28;20215;-59
2024/04/03 06:49:29;;;;;;;1.87;0.87;;;14.00;49.00;;;;;;5051442;28;20660;-58
2024/04/03 06:51:55;;;;;;;2.03;0.90;;;14.00;49.00;;;;;;5052213;28;20281;-58
2024/04/03 06:54:22;;;;;;;1.67;1.00;;;14.00;49.00;;;;;;5068524;28;20199;-58
2024/04/03 06:56:48;;;;;;;2.83;0.70;;;14.00;49.00;;;;;;5046240;28;20682;-58
2024/04/03 06:59:15;;;;;;;2.27;0.97;;;14.00;49.00;;;;;;5055994;28;20204;-58
2024/04/03 07:01:41;;;;;;;1.93;1.10;;;14.00;49.00;;;;;;5048030;28;20564;-58
2024/04/03 07:04:07;;;;;;;2.60;1.20;;;14.00;49.10;;;;;;5058971;28;20652;-58
2024/04/03 07:06:36;;;;;;;1.13;1.03;;;14.00;49.10;;;;;;5057809;28;20207;-58
2024/04/03 07:09:04;;;;;;;1.63;1.33;;;14.00;49.20;;;;;;5060254;28;20202;-58
2024/04/03 07:11:31;;;;;;;1.93;1.50;;;14.00;49.10;;;;;;5055782;28;20223;-58
2024/04/03 07:13:56;;;;;;;2.77;1.60;;;14.00;49.20;;;;;;5069433;28;20540;-58
2024/04/03 07:16:24;;;;;;;3.33;1.63;;;14.00;49.20;;;;;;5053183;28;20207;-58
2024/04/03 07:18:53;;;;;;;5.57;2.33;;;14.00;49.20;;;;;;5059576;28;20620;-58
2024/04/03 07:21:20;;;;;;;3.10;1.93;;;13.90;49.10;;;;;;5043351;28;20755;-58
2024/04/03 07:23:47;;;;;;;5.43;2.00;;;13.90;49.10;;;;;;5057674;28;20203;-58
2024/04/03 07:26:14;;;;;;;4.37;2.40;;;13.90;48.90;;;;;;5058502;28;20234;-58
2024/04/03 07:28:41;;;;;;;4.90;2.37;;;13.90;48.90;;;;;;5063274;28;20211;-58
2024/04/03 07:31:07;;;;;;;4.90;2.50;;;13.90;48.70;;;;;;5063454;28;20223;-58
2024/04/03 07:33:33;;;;;;;3.43;2.30;;;13.90;48.70;;;;;;5064121;28;20227;-58
2024/04/03 07:36:01;;;;;;;4.17;2.27;;;14.00;48.70;;;;;;5061524;28;20204;-58
2024/04/03 07:38:28;;;;;;;4.27;2.30;;;14.00;48.70;;;;;;5064921;28;20206;-58
2024/04/03 07:40:55;;;;;;;4.00;2.27;;;14.00;48.50;;;;;;5050877;28;20716;-58
2024/04/03 07:43:22;;;;;;;5.00;2.87;;;14.00;48.50;;;;;;5066107;28;20207;-58
2024/04/03 07:45:48;;;;;;;7.83;3.83;;;14.10;48.50;;;;;;5057707;28;20207;-58
2024/04/03 07:48:15;;;;;;;6.80;4.30;;;14.10;48.40;;;;;;5061915;28;20580;-58
2024/04/03 07:50:41;;;;;;;6.23;3.83;;;14.10;48.30;;;;;;5056050;28;20230;-58
2024/04/03 07:53:08;;;;;;;6.03;3.73;;;14.20;48.20;;;;;;5056562;28;20320;-58
2024/04/03 07:55:35;;;;;;;4.47;3.23;;;14.20;48.00;;;;;;5054093;28;20203;-58
2024/04/03 07:58:03;;;;;;;4.23;2.80;;;14.20;47.90;;;;;;5059022;28;20199;-58
2024/04/03 08:00:29;;;;;;;5.43;3.30;;;14.20;47.90;;;;;;5059025;28;20219;-59
2024/04/03 08:02:56;;;;;;;4.27;2.90;;;14.20;47.90;;;;;;5066076;28;20206;-58
2024/04/03 08:05:22;;;;;;;4.20;2.50;;;14.20;47.80;;;;;;5052009;28;20653;-58
2024/04/03 08:07:49;;;;;;;4.50;2.40;;;14.30;47.70;;;;;;5063915;28;22298;-58
2024/04/03 08:10:15;;;;;;;4.93;2.80;;;14.30;47.50;;;;;;5060067;28;20565;-58
2024/04/03 08:12:42;;;;;;;4.80;2.90;;;14.30;47.50;;;;;;5070252;28;20241;-58
2024/04/03 08:15:11;;;;;;;6.87;2.90;;;14.30;47.20;;;;;;5069084;28;20203;-59
2024/04/03 08:17:38;;;;;;;6.60;2.87;;;14.30;47.20;;;;;;5061601;28;20665;-58
2024/04/03 08:20:05;;;;;;;5.50;2.57;;;14.30;47.70;;;;;;5073670;28;20235;-58
2024/04/03 08:22:32;;;;;;;3.80;2.50;;;14.30;47.80;;;;;;5061449;28;20255;-58
2024/04/03 08:24:58;;;;;;;5.23;2.70;;;14.30;47.80;;;;;;5058025;28;20644;-59
2024/04/03 08:27:25;;;;;;;6.20;2.63;;;14.30;47.90;;;;;;5055322;28;20205;-59
2024/04/03 08:29:55;;;;;;;8.10;2.80;;;14.30;48.00;;;;;;5071697;28;20576;-59
2024/04/03 08:32:23;;;;;;;7.20;2.93;;;14.40;48.10;;;;;;5061049;28;20223;-59
2024/04/03 08:34:51;;;;;;;8.63;3.00;;;14.40;48.10;;;;;;5063854;28;20824;-59
2024/04/03 08:37:19;;;;;;;8.47;3.27;;;14.40;48.10;;;;;;5055482;28;20208;-59
2024/04/03 08:39:45;;;;;;;6.03;2.90;;;14.50;48.40;;;;;;5070514;28;20203;-59
2024/04/03 08:42:12;;;;;;;8.13;3.10;;;14.50;48.30;;;;;;5055576;28;20286;-59
2024/04/03 08:44:38;;;;;;;12.83;3.53;;;14.50;48.40;;;;;;5069357;28;20204;-59
2024/04/03 08:47:05;;;;;;;8.23;3.47;;;14.50;48.30;;;;;;5062116;28;20653;-60
2024/04/03 08:49:34;;;;;;;6.30;2.63;;;14.50;48.30;;;;;;5064558;28;20207;-59
2024/04/03 08:52:03;;;;;;;9.07;3.03;;;14.50;48.30;;;;;;5061048;28;20233;-59
2024/04/03 08:54:29;;;;;;;6.03;3.00;;;14.50;48.30;;;;;;5061333;28;20225;-59
2024/04/03 08:56:57;;;;;;;9.57;2.90;;;14.50;48.30;;;;;;5049204;28;20201;-61
2024/04/03 08:59:23;;;;;;;12.77;2.47;;;14.50;48.80;;;;;;5065664;28;20210;-59
2024/04/03 09:01:50;;;;;;;5.47;2.13;;;14.50;49.20;;;;;;5048731;28;20229;-60
2024/04/03 09:04:17;;;;;;;4.97;2.23;;;14.50;49.50;;;;;;5061749;28;20215;-59
2024/04/03 09:06:45;;;;;;;9.63;2.33;;;14.50;50.20;;;;;;5069298;28;20553;-60
2024/04/03 09:09:18;;;;;;;4.90;1.50;;;14.50;50.00;;;;;;5055659;28;20209;-60
2024/04/03 09:11:46;;;;;;;3.20;1.27;;;14.50;47.40;;;;;;5057605;28;20278;-59
2024/04/03 09:14:19;;;;;;;6.27;1.60;;;14.50;47.60;;;;;;5061560;28;20280;-59
2024/04/03 09:16:46;;;;;;;5.53;1.70;;;14.50;48.20;;;;;;5062122;28;20199;-58
2024/04/03 09:19:13;;;;;;;3.00;1.60;;;14.50;48.50;;;;;;5060811;28;20220;-59
2024/04/03 09:21:39;;;;;;;8.63;1.60;;;14.50;48.70;;;;;;5045621;28;20233;-59
2024/04/03 09:24:08;;;;;;;3.33;1.67;;;14.50;48.80;;;;;;5064949;28;20574;-59
2024/04/03 09:26:34;;;;;;;6.83;1.77;;;14.40;49.00;;;;;;5061538;28;20206;-59
2024/04/03 09:29:01;;;;;;;2.83;1.47;;;14.50;49.20;;;;;;5072773;28;20196;-59
2024/04/03 09:31:28;;;;;;;3.07;1.83;;;14.50;49.50;;;;;;5072573;28;20231;-59
2024/04/03 09:33:56;;;;;;;6.07;2.10;;;14.60;49.80;;;;;;5064110;28;20628;-58
2024/04/03 09:36:22;;;;;;;3.63;1.73;;;14.60;50.00;;;;;;5060314;28;20206;-58
2024/04/03 09:38:50;;;;;;;4.57;2.00;;;14.60;50.20;;;;;;5061922;28;20208;-58
2024/04/03 09:41:18;;;;;;;6.87;1.67;;;14.70;50.30;;;;;;5049825;28;20263;-58
2024/04/03 09:43:46;;;;;;;2.93;1.60;;;14.70;50.40;;;;;;5063132;28;20204;-58
2024/04/03 09:46:13;;;;;;;4.10;1.60;;;14.70;50.40;;;;;;5057757;28;20220;-58
2024/04/03 09:48:41;;;;;;;3.73;1.50;;;14.80;50.40;;;;;;5051606;28;20204;-58
2024/04/03 09:51:07;;;;;;;3.70;1.60;;;14.80;50.40;;;;;;5049877;28;20593;-58
2024/04/03 09:53:35;;;;;;;3.40;1.53;;;14.80;50.40;;;;;;5068929;28;20274;-58
2024/04/03 09:56:01;;;;;;;4.10;1.50;;;14.80;50.40;;;;;;5051000;28;20695;-59
2024/04/03 09:58:36;;;;;;;3.00;1.43;;;14.80;50.40;;;;;;5063979;28;20204;-59
2024/04/03 10:01:04;;;;;;;3.50;1.40;;;14.80;50.50;;;;;;5053305;28;20591;-59
2024/04/03 10:03:34;;;;;;;6.10;1.90;;;14.80;50.40;;;;;;5044001;28;20202;-59
2024/04/03 10:06:02;;;;;;;3.63;1.73;;;14.90;50.50;;;;;;5051658;28;20637;-59
2024/04/03 10:08:40;;;;;;;2.70;1.30;;;14.80;50.40;;;;;;5051679;28;20196;-59
2024/04/03 10:11:07;;;;;;;2.60;1.20;;;14.90;50.50;;;;;;5053638;28;20224;-59
2024/04/03 10:13:36;;;;;;;3.07;1.70;;;14.90;50.50;;;;;;5055414;28;20569;-59
2024/04/03 10:16:04;;;;;;;4.43;1.60;;;14.90;50.50;;;;;;5060008;28;20682;-59
2024/04/03 10:18:35;;;;;;;2.63;1.57;;;14.90;50.50;;;;;;5048482;28;20635;-59
2024/04/03 10:21:01;;;;;;;1.37;1.20;;;14.90;50.40;;;;;;5056804;28;20228;-59
2024/04/03 10:23:28;;;;;;;2.13;1.27;;;14.90;50.50;;;;;;5056125;28;20196;-59
2024/04/03 10:25:55;;;;;;;4.43;1.57;;;14.90;50.40;;;;;;5054472;28;20585;-59
2024/04/03 10:28:22;;;;;;;3.43;1.37;;;14.90;50.50;;;;;;5058343;28;20268;-59
2024/04/03 10:30:54;;;;;;;2.27;1.40;;;14.90;50.40;;;;;;5055392;28;20236;-59
2024/04/03 10:33:21;;;;;;;2.13;1.30;;;14.90;50.50;;;;;;5057118;28;20233;-59
2024/04/03 10:35:47;;;;;;;3.27;1.57;;;14.90;50.40;;;;;;5054870;28;20208;-59
2024/04/03 10:38:14;;;;;;;6.80;1.50;;;14.90;50.40;;;;;;5058954;28;20216;-58
2024/04/03 10:40:40;;;;;;;4.20;1.30;;;14.90;50.30;;;;;;5057033;28;20228;-58
2024/04/03 10:43:07;;;;;;;3.93;1.33;;;14.90;50.40;;;;;;5065781;28;20196;-59
2024/04/03 10:45:33;;;;;;;5.27;1.70;;;14.90;50.40;;;;;;5054185;28;20581;-59
2024/04/03 10:48:01;;;;;;;4.53;1.63;;;14.90;50.30;;;;;;5046893;28;20208;-58
2024/04/03 10:50:27;;;;;;;3.63;1.40;;;15.00;50.30;;;;;;5054780;28;20716;-58
2024/04/03 10:52:54;;;;;;;3.63;1.43;;;14.90;50.20;;;;;;5062760;28;20220;-59
2024/04/03 10:55:20;;;;;;;4.60;1.83;;;14.90;50.20;;;;;;5055499;28;20784;-59
2024/04/03 10:57:48;;;;;;;3.90;1.50;;;14.90;50.20;;;;;;5070556;28;20212;-58
2024/04/03 11:00:15;;;;;;;4.07;1.60;;;14.90;50.20;;;;;;5073885;28;20239;-59
2024/04/03 11:02:48;;;;;;;5.80;1.40;;;14.90;50.20;;;;;;5062049;28;20673;-59
2024/04/03 11:05:15;;;;;;;4.40;1.57;;;14.90;50.20;;;;;;5060618;28;20198;-59
2024/04/03 11:07:43;;;;;;;1.83;1.37;;;14.80;50.10;;;;;;5058342;28;20212;-59
2024/04/03 11:10:11;;;;;;;3.00;1.30;;;14.80;50.10;;;;;;5064255;28;20233;-59
2024/04/03 11:12:38;;;;;;;2.53;1.40;;;14.80;50.20;;;;;;5057348;28;20224;-59
2024/04/03 11:15:05;;;;;;;2.60;1.27;;;14.80;50.20;;;;;;5063326;28;20209;-59
2024/04/03 11:17:32;;;;;;;1.97;1.33;;;14.80;50.20;;;;;;5054646;28;20572;-59
2024/04/03 11:19:58;;;;;;;2.93;1.50;;;14.80;50.20;;;;;;5061963;28;20637;-59
2024/04/03 11:22:26;;;;;;;2.40;1.50;;;14.80;50.20;;;;;;5066339;28;20287;-59
2024/04/03 11:24:53;;;;;;;2.97;1.50;;;14.80;50.30;;;;;;5069104;28;20215;-59
2024/04/03 11:27:19;;;;;;;2.67;1.20;;;14.80;50.20;;;;;;5053601;28;20674;-59
2024/04/03 11:29:45;;;;;;;3.07;1.53;;;14.80;50.20;;;;;;5061000;28;20289;-59
2024/04/03 11:32:14;;;;;;;4.27;1.30;;;14.80;50.90;;;;;;5060276;28;20646;-59
2024/04/03 11:34:40;;;;;;;2.47;1.33;;;14.80;50.20;;;;;;5074858;28;20273;-59
2024/04/03 11:37:06;;;;;;;2.90;1.40;;;14.80;50.30;;;;;;5050667;28;20689;-59
2024/04/03 11:39:34;;;;;;;3.43;1.20;;;14.80;50.30;;;;;;5054622;28;20562;-59
2024/04/03 11:42:01;;;;;;;3.30;1.13;;;14.80;50.30;;;;;;5059180;28;20224;-59
2024/04/03 11:44:27;;;;;;;3.93;1.60;;;14.80;50.30;;;;;;5064810;28;20715;-58
2024/04/03 11:46:54;;;;;;;2.90;1.30;;;14.80;50.30;;;;;;5062458;28;20223;-59
2024/04/03 11:49:19;;;;;;;4.00;1.23;;;14.80;50.30;;;;;;5056252;28;20288;-59
2024/04/03 11:51:48;;;;;;;3.83;1.30;;;14.80;50.30;;;;;;5051523;28;20319;-60
2024/04/03 11:54:14;;;;;;;4.80;1.10;;;14.80;50.30;;;;;;5050044;28;20235;-59
2024/04/03 11:56:42;;;;;;;2.67;1.23;;;14.80;50.30;;;;;;5050623;28;20212;-59
2024/04/03 11:59:08;;;;;;;1.60;1.00;;;14.80;50.30;;;;;;5059301;28;20567;-59
2024/04/03 12:01:35;;;;;;;1.33;1.03;;;14.80;50.20;;;;;;5054984;28;20228;-58
2024/04/03 12:04:02;;;;;;;2.83;1.10;;;14.80;50.20;;;;;;5072298;28;20290;-58
2024/04/03 12:06:29;;;;;;;5.47;1.70;;;14.80;48.60;;;;;;5058683;28;20207;-58
2024/04/03 12:08:56;;;;;;;5.40;1.57;;;14.70;47.50;;;;;;5058166;28;20208;-59
2024/04/03 12:11:23;;;;;;;2.10;1.30;;;14.70;48.00;;;;;;5050466;28;20645;-59
2024/04/03 12:13:50;;;;;;;1.33;1.20;;;14.70;48.10;;;;;;5072240;28;20228;-59
2024/04/03 12:16:20;;;;;;;1.80;1.07;;;14.70;48.20;;;;;;5063830;28;20213;-59
2024/04/03 12:18:50;;;;;;;1.53;1.23;;;14.70;48.20;;;;;;5064097;28;20215;-59
2024/04/03 12:21:17;;;;;;;3.10;1.27;;;14.70;48.30;;;;;;5063066;28;20235;-59
2024/04/03 12:23:44;;;;;;;2.83;1.30;;;14.70;48.50;;;;;;5065302;28;20211;-59
2024/04/03 12:26:12;;;;;;;4.00;1.40;;;14.70;48.20;;;;;;5053386;28;20619;-58
2024/04/03 12:28:38;;;;;;;3.93;1.50;;;14.70;48.00;;;;;;5065143;28;20660;-59
2024/04/03 12:31:06;;;;;;;3.27;1.33;;;14.70;48.10;;;;;;5054679;28;20311;-58
2024/04/03 12:33:32;;;;;;;2.83;1.77;;;14.70;48.20;;;;;;5059264;28;20237;-58
2024/04/03 12:35:59;;;;;;;3.63;2.10;;;14.70;48.10;;;;;;5058696;28;20201;-58
2024/04/03 12:38:25;;;;;;;3.80;1.83;;;14.80;47.90;;;;;;5048807;28;20211;-58
2024/04/03 12:40:53;;;;;;;2.93;1.93;;;14.70;46.90;;;;;;5051123;28;20224;-58
2024/04/03 12:43:20;;;;;;;3.87;1.50;;;14.80;46.80;;;;;;5065900;28;20201;-58
2024/04/03 12:45:51;;;;;;;2.57;1.43;;;14.70;46.90;;;;;;5058495;28;20213;-57
2024/04/03 12:48:18;;;;;;;2.60;1.67;;;14.70;46.90;;;;;;5056874;28;20200;-58